Terminal Aerodrome Forecast
Issued by NWS Mt. Holly, NJ

Current Version | Previous Version | Text Only | Print | Product List | Glossary On
Versions: 1 2 3 4 5 6 7 8 9 10 11 12 13 14 15 16 17 18 19 20 21 22 23 24 25 26 27 28 29 30 31 32 33 34 35 36 37 38
000
FTUS41 KPHI 131130
TAFILG
TAF
KILG 131130Z 1312/1412 17004KT P6SM SCT009 OVC035
      TEMPO 1312/1313 OVC009
     FM131300 17008KT P6SM BKN045
     FM140400 16006KT P6SM -SHRA OVC025
     FM140900 17006KT 4SM -SHRA BR OVC015=

USA.gov is the U.S. government's official web portal to all federal, state and local government web resources and services.